AR10 weather

Greenwalt Company Airport
Hazen, Arkansas, United States

Public forecast

Using degrees Fahrenheit for public forecast. Weather courtesy of forecast.io.

METAR (pilot weather report)

Closest report is Stuttgart Municipal Airport / Carl Humphrey Field, 12.5 nm (23.2 km) S. Retrieved 2019/09/21 01:56 UTC (11 minutes ago):

KSGT 210156Z AUTO 12005KT 10SM OVC090 24/23 A3012 RMK AO2 SLP197 T02440228

TAF (pilot weather forecast)

Closest forecast is Little Rock Air Force Base, 27.5 nm (50.9 km) WNW. Retrieved 2019/09/20 23:38 UTC (2 hours ago):

TAF KLRF 202300Z 2023/2205 VRB06KT 9999 FEW015 BKN100 QNH3009INS BECMG 2114/2115 19010G15KT 9999 FEW040 SCT100 QNH3004INS BECMG 2123/2124 VRB06KT 9999 FEW120 QNH3003INS TX30/2120Z TN21/2111Z